.
WxDataArchive / Data Records for 2007-06-20
2007-06-19 June 2007 2007-06-21

Data Records for Wednesday, 20 June 2007

Time	Temp	Chill	HIndex	Humid	Dewpt	 Wind 	HiWind	WindDir	Rain 	Barom 
-----	----	-----	------	-----	-----	------	------	-------	-----	----- 
00:00	62.4	62.4	62.4	66	50.9	0	0	---	0.00	30.006 
00:05	62.0	62.0	62.0	67	50.9	0	0	---	0.00	30.009 
00:10	61.6	61.6	61.6	68	50.9	0	0	---	0.00	30.011 
00:15	61.5	61.5	61.5	69	51.2	0	0	---	0.00	30.012 
00:20	61.3	61.3	61.3	68	50.6	0	0	---	0.00	30.012 
00:25	61.2	61.2	61.2	69	50.9	0	0	---	0.00	30.012 
00:30	60.9	60.9	60.9	69	50.7	0	0	---	0.00	30.012 
00:35	60.7	60.7	60.7	70	50.9	0	0	---	0.00	30.013 
00:40	60.4	60.4	60.4	71	50.9	0	0	---	0.00	30.014 
00:45	60.1	60.1	60.1	72	51.0	0	0	---	0.00	30.014 
00:50	59.8	59.8	59.8	73	51.1	0	0	---	0.00	30.015 
00:55	59.5	59.5	59.5	74	51.2	0	0	---	0.00	30.015 
01:00	59.2	59.2	59.2	75	51.3	0	0	---	0.00	30.016 
01:05	58.9	58.9	58.9	76	51.3	0	0	---	0.00	30.012 
01:10	58.6	58.6	58.6	76	51.1	0	0	---	0.00	30.012 
01:15	58.3	58.3	58.3	78	51.5	0	0	---	0.00	30.013 
01:20	58.0	58.0	58.0	79	51.5	0	0	---	0.00	30.013 
01:25	57.6	57.6	57.6	79	51.1	0	0	---	0.00	30.013 
01:30	57.5	57.5	57.5	81	51.7	0	0	---	0.00	30.012 
01:35	57.2	57.2	57.2	81	51.4	0	0	---	0.00	30.015 
01:40	56.9	56.9	56.9	82	51.5	0	0	---	0.00	30.017 
01:45	56.7	56.7	56.7	82	51.3	0	0	---	0.00	30.016 
01:50	56.6	56.6	56.6	83	51.5	0	0	---	0.00	30.014 
01:55	56.5	56.5	56.5	84	51.7	0	0	---	0.00	30.014 
02:00	56.2	56.2	56.2	84	51.4	0	0	---	0.00	30.013 
02:05	56.0	56.0	56.0	84	51.2	0	0	---	0.00	30.014 
02:10	55.9	55.9	55.9	85	51.5	0	0	---	0.00	30.013 
02:15	55.7	55.7	55.7	85	51.3	0	0	---	0.00	30.014 
02:20	55.7	55.7	55.7	87	51.9	0	0	---	0.00	30.013 
02:25	55.6	55.6	55.6	88	52.1	0	0	---	0.00	30.012 
02:30	55.4	55.4	55.4	88	51.9	0	0	---	0.00	30.011 
02:35	55.4	55.4	55.4	88	51.9	0	0	---	0.00	30.013 
02:40	55.3	55.3	55.3	88	51.8	0	0	---	0.00	30.011 
02:45	55.1	55.1	55.1	89	51.9	0	0	---	0.00	30.010 
02:50	55.1	55.1	55.1	89	51.9	0	0	---	0.00	30.011 
02:55	55.0	55.0	55.0	89	51.8	0	0	---	0.00	30.013 
03:00	54.8	54.8	54.8	90	51.9	0	0	---	0.00	30.014 
03:05	55.0	55.0	55.0	90	52.1	0	0	---	0.00	30.013 
03:10	54.8	54.8	54.8	90	51.9	0	0	---	0.00	30.013 
03:15	54.8	54.8	54.8	90	51.9	0	0	---	0.00	30.015 
03:20	54.8	54.8	54.8	91	52.2	0	0	---	0.00	30.017 
03:25	54.7	54.7	54.7	91	52.1	0	0	---	0.00	30.018 
03:30	54.8	54.8	54.8	91	52.2	0	0	---	0.00	30.016 
03:35	54.8	54.8	54.8	91	52.2	0	0	---	0.00	30.017 
03:40	54.7	54.7	54.7	91	52.1	0	0	---	0.00	30.015 
03:45	54.7	54.7	54.7	91	52.1	0	0	---	0.00	30.018 
03:50	54.5	54.5	54.5	91	51.9	0	0	---	0.00	30.024 
03:55	54.4	54.4	54.4	91	51.8	0	0	---	0.00	30.029 
04:00	54.4	54.4	54.4	91	51.8	0	0	---	0.00	30.029 
04:05	54.2	54.2	54.2	91	51.6	0	0	---	0.00	30.033 
04:10	54.2	54.2	54.2	91	51.6	0	0	---	0.00	30.039 
04:15	54.2	54.2	54.2	91	51.6	0	0	---	0.00	30.045 
04:20	54.2	54.2	54.2	91	51.6	0	0	---	0.00	30.050 
04:25	54.4	54.4	54.4	91	51.8	0	0	---	0.00	30.058 
04:30	54.5	54.5	54.5	91	51.9	0	0	---	0.00	30.058 
04:35	54.7	54.7	54.7	91	52.1	0	0	---	0.00	30.061 
04:40	54.8	54.8	54.8	91	52.2	0	0	---	0.00	30.064 
04:45	54.8	54.8	54.8	90	51.9	0	0	---	0.00	30.065 
04:50	55.0	55.0	55.0	90	52.1	0	0	---	0.00	30.064 
04:55	54.8	54.8	54.8	90	51.9	0	0	---	0.00	30.072 
05:00	54.7	54.7	54.7	90	51.8	0	0	---	0.00	30.070 
05:05	54.8	54.8	54.8	90	51.9	0	0	---	0.00	30.073 
05:10	54.8	54.8	54.8	90	51.9	0	0	---	0.00	30.075 
05:15	54.7	54.7	54.7	90	51.8	0	0	---	0.00	30.077 
05:20	54.7	54.7	54.7	90	51.8	0	0	---	0.00	30.078 
05:25	54.7	54.7	54.7	90	51.8	0	0	---	0.00	30.079 
05:30	54.7	54.7	54.7	90	51.8	0	0	---	0.00	30.080 
05:35	54.8	54.8	54.8	90	51.9	0	0	---	0.00	30.081 
05:40	55.1	55.1	55.1	90	52.2	0	1	315	0.00	30.082 
05:45	55.3	55.3	55.3	90	52.4	0	0	---	0.00	30.087 
05:50	55.9	55.9	55.9	89	52.7	0	1	315	0.00	30.085 
05:55	56.3	56.3	56.3	88	52.8	0	1	315	0.00	30.088 
06:00	56.9	56.9	56.9	88	53.4	0	1	315	0.00	30.089 
06:05	57.3	57.3	57.3	86	53.1	0	1	315	0.00	30.092 
06:10	58.0	58.0	58.0	84	53.2	0	1	315	0.00	30.093 
06:15	58.4	58.4	58.4	83	53.3	0	2	315	0.00	30.094 
06:20	58.9	58.9	58.9	82	53.4	0	2	315	0.00	30.093 
06:25	59.3	59.3	59.3	81	53.5	0	2	315	0.00	30.096 
06:30	59.8	59.8	59.8	80	53.6	1	2	315	0.00	30.099 
06:35	60.2	60.2	60.2	79	53.7	1	2	315	0.00	30.100 
06:40	60.7	60.7	60.7	78	53.8	1	2	315	0.00	30.100 
06:45	61.2	61.2	61.2	78	54.3	1	2	315	0.00	30.102 
06:50	61.8	61.8	61.8	76	54.1	1	3	225	0.00	30.098 
06:55	62.3	62.3	62.3	76	54.6	1	2	225	0.00	30.099 
07:00	62.9	62.9	62.9	74	54.5	1	2	225	0.00	30.098 
07:05	63.4	63.4	63.4	74	55.0	0	1	315	0.00	30.099 
07:10	64.0	64.0	64.0	72	54.8	1	2	315	0.00	30.095 
07:15	64.5	64.5	64.5	70	54.5	0	2	315	0.00	30.095 
07:20	65.0	65.0	65.0	69	54.6	0	1	315	0.00	30.094 
07:25	65.6	65.6	65.6	67	54.3	0	2	315	0.00	30.100 
07:30	66.1	66.1	66.1	68	55.2	0	1	315	0.00	30.099 
07:35	66.8	66.8	66.8	64	54.2	1	2	315	0.00	30.098 
07:40	67.1	67.1	67.1	61	53.2	0	2	315	0.00	30.100 
07:45	67.6	67.6	67.6	61	53.7	1	3	315	0.00	30.102 
07:50	68.1	68.1	68.1	61	54.1	0	1	315	0.00	30.102 
07:55	68.8	68.8	68.8	61	54.8	0	2	315	0.00	30.102 
08:00	69.1	69.1	69.1	58	53.7	1	2	292	0.00	30.102 
08:05	69.6	69.6	69.6	59	54.6	1	3	292	0.00	30.106 
08:10	69.9	69.9	69.9	57	54.0	1	3	248	0.00	30.106 
08:15	70.3	70.3	70.3	57	54.3	1	2	248	0.00	30.106 
08:20	70.6	70.6	70.6	56	54.1	1	2	248	0.00	30.105 
08:25	71.1	71.1	71.1	56	54.6	1	2	248	0.00	30.106 
08:30	71.5	71.5	71.5	54	54.0	1	2	248	0.00	30.106 
08:35	71.8	71.8	71.8	50	52.1	1	2	292	0.00	30.107 
08:40	71.8	71.8	71.8	51	52.7	1	2	292	0.00	30.107 
08:45	71.8	71.8	71.8	50	52.1	1	3	315	0.00	30.107 
08:50	72.1	72.1	72.1	51	53.0	1	3	270	0.00	30.106 
08:55	72.5	72.5	72.5	47	51.1	1	3	292	0.00	30.105 
09:00	72.8	72.8	72.8	48	52.0	1	2	292	0.00	30.104 
09:05	73.3	73.3	73.3	51	54.1	0	2	292	0.00	30.106 
09:10	73.9	73.9	73.9	52	55.1	1	4	270	0.00	30.104 
09:15	74.2	74.2	74.2	47	52.7	0	2	315	0.00	30.106 
09:20	74.6	74.6	74.6	48	53.6	0	2	315	0.00	30.106 
09:25	74.7	74.7	74.7	44	51.3	1	3	315	0.00	30.107 
09:30	74.9	74.9	74.9	43	50.9	0	2	292	0.00	30.106 
09:35	75.1	75.1	77.6	42	50.4	1	2	0	0.00	30.107 
09:40	75.1	75.1	77.4	38	47.7	1	2	315	0.00	30.108 
09:45	74.9	74.9	74.9	36	46.1	1	5	338	0.00	30.108 
09:50	75.1	75.1	77.5	40	49.1	1	2	315	0.00	30.110 
09:55	75.1	75.1	77.5	40	49.1	1	3	315	0.00	30.110 
10:00	75.4	75.4	77.4	36	46.6	1	3	315	0.00	30.109 
10:05	75.4	75.4	77.5	37	47.3	2	4	315	0.00	30.112 
10:10	75.4	75.4	77.6	39	48.7	1	4	270	0.00	30.110 
10:15	76.0	76.0	77.7	37	47.8	1	3	315	0.00	30.109 
10:20	76.1	76.1	77.8	39	49.3	1	4	270	0.00	30.113 
10:25	76.5	76.5	77.8	35	46.8	1	3	315	0.00	30.114 
10:30	76.5	76.5	77.7	34	46.0	2	4	315	0.00	30.116 
10:35	76.3	76.3	77.7	36	47.4	2	4	315	0.00	30.115 
10:40	76.3	76.3	77.7	35	46.6	2	4	315	0.00	30.118 
10:45	76.5	76.5	77.8	36	47.5	1	4	292	0.00	30.119 
10:50	76.7	76.7	77.8	34	46.2	1	3	315	0.00	30.119 
10:55	76.7	76.7	77.8	34	46.2	1	3	292	0.00	30.119 
11:00	76.8	76.8	77.8	34	46.3	2	6	270	0.00	30.122 
11:05	76.8	76.8	77.9	36	47.8	1	6	315	0.00	30.125 
11:10	77.0	77.0	78.2	39	50.1	1	4	292	0.00	30.124 
11:15	77.2	77.2	78.1	35	47.4	2	4	292	0.00	30.125 
11:20	77.2	77.2	78.1	36	48.2	2	4	315	0.00	30.126 
11:25	77.2	77.2	78.0	34	46.6	1	3	338	0.00	30.123 
11:30	77.4	77.4	78.0	33	46.0	2	4	315	0.00	30.125 
11:35	77.4	77.4	78.1	34	46.8	0	2	315	0.00	30.125 
11:40	77.6	77.6	78.2	34	47.0	2	5	292	0.00	30.124 
11:45	77.6	77.6	78.3	36	48.5	2	4	248	0.00	30.123 
11:50	77.9	77.9	78.5	37	49.5	2	3	315	0.00	30.122 
11:55	77.9	77.9	78.4	36	48.8	2	5	292	0.00	30.123 
12:00	78.3	78.3	78.6	35	48.4	2	4	315	0.00	30.123 
12:05	78.6	78.6	78.8	36	49.4	1	3	315	0.00	30.123 
12:10	78.6	78.6	78.6	33	47.1	2	5	338	0.00	30.123 
12:15	78.8	78.8	78.8	35	48.8	2	4	292	0.00	30.125 
12:20	78.6	78.6	78.7	35	48.6	2	5	315	0.00	30.124 
12:25	78.6	78.6	78.8	36	49.4	2	4	270	0.00	30.120 
12:30	78.8	78.8	78.7	33	47.2	1	3	315	0.00	30.121 
12:35	78.3	78.3	78.6	36	49.1	1	4	315	0.00	30.119 
12:40	78.6	78.6	78.9	37	50.1	1	4	270	0.00	30.119 
12:45	78.8	78.8	78.8	34	48.0	2	4	270	0.00	30.115 
12:50	79.2	79.2	79.1	35	49.2	2	4	292	0.00	30.109 
12:55	79.6	79.6	79.2	33	47.9	1	4	270	0.00	30.108 
13:00	79.9	79.9	79.6	36	50.5	1	4	270	0.00	30.105 
13:05	80.1	80.1	79.5	34	49.2	1	4	270	0.00	30.107 
13:10	79.8	79.8	79.5	36	50.4	1	4	315	0.00	30.106 
13:15	79.8	79.8	79.4	35	49.7	1	3	315	0.00	30.104 
13:20	79.8	79.8	79.3	34	48.9	1	3	22	0.00	30.096 
13:25	79.6	79.6	79.2	33	47.9	1	3	338	0.00	30.099 
13:30	79.8	79.8	79.3	33	48.1	1	3	338	0.00	30.097 
13:35	80.1	80.1	79.5	34	49.2	1	3	292	0.00	30.093 
13:40	80.7	80.7	80.0	35	50.5	1	4	248	0.00	30.093 
13:45	80.3	80.3	79.7	35	50.1	1	4	270	0.00	30.091 
13:50	80.3	80.3	79.7	34	49.3	1	3	270	0.00	30.091 
13:55	80.1	80.1	79.5	34	49.2	1	3	270	0.00	30.090 
14:00	80.3	80.3	79.8	36	50.9	1	3	270	0.00	30.090 
14:05	80.3	80.3	79.6	33	48.5	1	3	315	0.00	30.090 
14:10	80.5	80.5	79.5	30	46.2	1	4	270	0.00	30.091 
14:15	80.5	80.5	79.7	33	48.7	1	4	270	0.00	30.087 
14:20	80.7	80.7	79.8	32	48.1	0	3	0	0.00	30.087 
14:25	80.9	80.9	80.1	34	49.9	1	3	338	0.00	30.083 
14:30	81.4	81.4	80.3	33	49.5	1	3	270	0.00	30.084 
14:35	81.2	81.2	80.0	31	47.7	2	5	315	0.00	30.080 
14:40	80.9	80.9	79.7	30	46.5	2	3	292	0.00	30.082 
14:45	80.7	80.7	79.8	32	48.1	2	4	315	0.00	30.083 
14:50	80.7	80.7	79.6	30	46.4	1	4	292	0.00	30.079 
14:55	80.7	80.7	79.5	28	44.5	2	4	292	0.00	30.079 
15:00	80.9	80.9	79.7	30	46.5	0	2	292	0.00	30.077 
15:05	81.4	81.4	80.1	30	47.0	2	5	270	0.00	30.079 
15:10	81.8	81.8	80.6	33	49.9	1	4	292	0.00	30.077 
15:15	82.2	82.2	80.7	31	48.5	1	2	270	0.00	30.076 
15:20	82.0	82.0	80.4	29	46.6	1	4	292	0.00	30.074 
15:25	82.2	82.2	80.7	31	48.5	1	4	292	0.00	30.074 
15:30	81.6	81.6	80.1	28	45.3	2	4	270	0.00	30.075 
15:35	81.2	81.2	79.9	29	45.9	1	4	292	0.00	30.077 
15:40	81.2	81.2	80.0	31	47.7	2	4	315	0.00	30.075 
15:45	81.4	81.4	80.0	29	46.1	1	3	248	0.00	30.073 
15:50	81.6	81.6	80.1	28	45.3	2	6	270	0.00	30.072 
15:55	81.1	81.1	79.7	28	44.9	2	5	338	0.00	30.070 
16:00	81.2	81.2	79.7	27	44.0	1	3	315	0.00	30.067 
16:05	81.2	81.2	79.7	26	43.0	1	3	315	0.00	30.065 
16:10	81.1	81.1	79.7	27	43.9	1	4	338	0.00	30.063 
16:15	81.4	81.4	79.9	28	45.1	1	3	270	0.00	30.063 
16:20	81.6	81.6	80.1	28	45.3	1	3	315	0.00	30.064 
16:25	81.6	81.6	80.1	29	46.2	1	2	338	0.00	30.062 
16:30	81.4	81.4	79.9	28	45.1	2	7	338	0.00	30.065 
16:35	81.1	81.1	79.7	28	44.9	1	3	315	0.00	30.067 
16:40	80.9	80.9	79.7	29	45.6	1	5	315	0.00	30.062 
16:45	81.2	81.2	79.8	28	45.0	2	5	248	0.00	30.062 
16:50	81.1	81.1	79.7	28	44.9	2	4	315	0.00	30.062 
16:55	80.9	80.9	79.5	27	43.8	2	4	270	0.00	30.062 
17:00	80.9	80.9	79.6	28	44.7	2	4	248	0.00	30.061 
17:05	80.7	80.7	79.4	27	43.6	2	4	270	0.00	30.059 
17:10	80.3	80.3	79.2	28	44.2	1	3	292	0.00	30.059 
17:15	80.3	80.3	79.2	27	43.2	1	3	292	0.00	30.059 
17:20	80.3	80.3	79.2	27	43.2	1	3	270	0.00	30.059 
17:25	80.5	80.5	79.4	28	44.4	1	3	292	0.00	30.057 
17:30	80.7	80.7	79.4	27	43.6	1	3	248	0.00	30.056 
17:35	80.3	80.3	79.3	29	45.1	1	2	248	0.00	30.054 
17:40	79.9	79.9	78.9	27	42.9	1	3	292	0.00	30.055 
17:45	79.8	79.8	78.9	27	42.8	1	4	292	0.00	30.050 
17:50	79.6	79.6	78.9	29	44.5	1	3	292	0.00	30.052 
17:55	79.8	79.8	79.0	29	44.7	1	3	270	0.00	30.051 
18:00	79.6	79.6	78.8	27	42.7	1	3	270	0.00	30.052 
18:05	79.6	79.6	78.8	28	43.6	1	5	292	0.00	30.052 
18:10	79.2	79.2	78.6	28	43.3	1	5	315	0.00	30.049 
18:15	79.0	79.0	78.5	28	43.1	1	3	338	0.00	30.050 
18:20	78.8	78.8	78.4	28	42.9	1	2	338	0.00	30.050 
18:25	78.6	78.6	78.3	28	42.7	1	3	315	0.00	30.052 
18:30	78.6	78.6	78.4	29	43.7	1	3	315	0.00	30.051 
18:35	78.5	78.5	78.2	28	42.7	1	3	292	0.00	30.053 
18:40	78.5	78.5	78.3	29	43.6	1	3	248	0.00	30.051 
18:45	78.3	78.3	78.2	29	43.4	0	2	315	0.00	30.054 
18:50	78.1	78.1	78.1	29	43.2	1	4	270	0.00	30.052 
18:55	77.9	77.9	78.0	29	43.1	1	2	270	0.00	30.056 
19:00	77.7	77.7	77.9	29	42.9	1	2	292	0.00	30.056 
19:05	77.6	77.6	77.9	29	42.8	0	1	292	0.00	30.052 
19:10	77.2	77.2	77.8	30	43.3	0	1	292	0.00	30.053 
19:15	77.0	77.0	77.7	30	43.2	0	2	292	0.00	30.054 
19:20	76.8	76.8	77.5	28	41.2	0	2	292	0.00	30.057 
19:25	76.7	76.7	77.5	29	42.0	0	2	292	0.00	30.056 
19:30	76.3	76.3	77.4	30	42.6	0	1	292	0.00	30.058 
19:35	76.1	76.1	77.3	30	42.4	0	2	292	0.00	30.059 
19:40	75.8	75.8	77.3	31	43.0	0	1	292	0.00	30.063 
19:45	75.6	75.6	77.3	32	43.6	0	1	292	0.00	30.065 
19:50	75.3	75.3	77.2	32	43.4	0	1	292	0.00	30.068 
19:55	75.1	75.1	77.0	31	42.4	0	1	292	0.00	30.068 
20:00	74.6	74.6	74.6	31	42.0	0	1	292	0.00	30.065 
20:05	74.2	74.2	74.2	33	43.2	0	1	292	0.00	30.066 
20:10	73.9	73.9	73.9	33	43.0	0	0	---	0.00	30.068 
20:15	73.7	73.7	73.7	34	43.6	0	0	---	0.00	30.063 
20:20	73.2	73.2	73.2	36	44.6	0	0	---	0.00	30.060 
20:25	72.7	72.7	72.7	37	44.9	0	0	---	0.00	30.059 
20:30	72.0	72.0	72.0	37	44.3	0	0	---	0.00	30.064 
20:35	71.3	71.3	71.3	39	45.1	0	0	---	0.00	30.063 
20:40	70.8	70.8	70.8	39	44.6	0	0	---	0.00	30.066 
20:45	70.1	70.1	70.1	40	44.6	0	0	---	0.00	30.068 
20:50	69.4	69.4	69.4	40	44.0	0	0	---	0.00	30.068 
20:55	68.9	68.9	68.9	42	44.9	0	0	---	0.00	30.070 
21:00	68.4	68.4	68.4	43	45.0	0	0	---	0.00	30.072 
21:05	67.8	67.8	67.8	46	46.3	0	0	---	0.00	30.071 
21:10	67.1	67.1	67.1	46	45.6	0	0	---	0.00	30.072 
21:15	66.8	66.8	66.8	48	46.5	0	0	---	0.00	30.072 
21:20	66.4	66.4	66.4	48	46.1	0	0	---	0.00	30.071 
21:25	66.3	66.3	66.3	49	46.6	0	0	---	0.00	30.072 
21:30	66.0	66.0	66.0	51	47.3	0	0	---	0.00	30.074 
21:35	65.6	65.6	65.6	51	47.0	0	0	---	0.00	30.073 
21:40	65.3	65.3	65.3	51	46.7	0	0	---	0.00	30.073 
21:45	65.0	65.0	65.0	52	46.9	0	0	---	0.00	30.072 
21:50	64.8	64.8	64.8	52	46.8	0	0	---	0.00	30.073 
21:55	64.5	64.5	64.5	54	47.5	0	0	---	0.00	30.073 
22:00	64.3	64.3	64.3	54	47.3	0	0	---	0.00	30.069 
22:05	64.2	64.2	64.2	55	47.7	0	0	---	0.00	30.061 
22:10	64.0	64.0	64.0	55	47.5	0	0	---	0.00	30.060 
22:15	63.9	63.9	63.9	57	48.4	0	0	---	0.00	30.058 
22:20	63.5	63.5	63.5	56	47.5	0	0	---	0.00	30.058 
22:25	63.2	63.2	63.2	58	48.2	0	0	---	0.00	30.057 
22:30	63.1	63.1	63.1	58	48.1	0	0	---	0.00	30.056 
22:35	62.9	62.9	62.9	59	48.3	0	0	---	0.00	30.057 
22:40	62.7	62.7	62.7	60	48.6	0	0	---	0.00	30.055 
22:45	62.4	62.4	62.4	60	48.3	0	0	---	0.00	30.050 
22:50	62.3	62.3	62.3	62	49.1	0	0	---	0.00	30.045 
22:55	62.0	62.0	62.0	63	49.3	0	0	---	0.00	30.051 
23:00	61.8	61.8	61.8	62	48.6	0	0	---	0.00	30.056 
23:05	61.6	61.6	61.6	62	48.4	0	0	---	0.00	30.049 
23:10	61.5	61.5	61.5	63	48.8	0	0	---	0.00	30.050 
23:15	61.3	61.3	61.3	63	48.6	0	0	---	0.00	30.049 
23:20	61.3	61.3	61.3	64	49.0	0	0	---	0.00	30.052 
23:25	61.3	61.3	61.3	65	49.4	0	0	---	0.00	30.048 
23:30	61.2	61.2	61.2	65	49.3	0	0	---	0.00	30.045 
23:35	61.0	61.0	61.0	65	49.1	0	0	---	0.00	30.044 
23:40	60.9	60.9	60.9	65	49.1	0	0	---	0.00	30.044 
23:45	60.9	60.9	60.9	66	49.5	0	0	---	0.00	30.045 
23:50	60.7	60.7	60.7	66	49.3	0	0	---	0.00	30.045 
23:55	60.5	60.5	60.5	68	49.9	0	0	---	0.00	30.052 

CoCoRaHS
IN-AL-39
A2 Web Hosting
Creative Commons License
GoDaddy
Look for:

loaded 2017-10-17 09:33:57 • last modified 2010-11-18 10:43:29
Privacy PolicyDisclaimer
• wx.awcolley.com is powered by PmWiki v.2002016 •
• all content (unless otherwise noted) © 2017 A W Colley